Time;durP1;ratioP1;P1;durP2;ratioP2;P2;SDS_P1;SDS_P2;PMS_P1;PMS_P2;Temp;Humidity;BMP_temperature;BMP_pressure;BME280_temperature;BME280_humidity;BME280_pressure;Samples;Min_cycle;Max_cycle;Signal;HPM_P1;HPM_P2
2023/06/05 00:08:18;;;;;;;7.25;6.15;;;9.80;99.90;;;;;;21065701;28;20028;-42
2023/06/05 00:18:20;;;;;;;8.35;6.05;;;9.90;99.90;;;;;;21065407;28;20550;-43
2023/06/05 00:28:23;;;;;;;11.50;7.63;;;9.90;99.90;;;;;;21047741;28;20028;-46
2023/06/05 00:38:26;;;;;;;10.07;7.63;;;10.00;99.90;;;;;;21060659;28;20089;-43
2023/06/05 00:48:30;;;;;;;9.40;6.13;;;10.10;99.90;;;;;;21077813;28;20117;-43
2023/06/05 00:58:31;;;;;;;5.80;4.28;;;10.20;99.90;;;;;;21076593;28;20113;-43
2023/06/05 01:08:44;;;;;;;7.18;6.13;;;10.10;99.90;;;;;;21078890;28;20388;-46
2023/06/05 01:18:46;;;;;;;4.35;2.88;;;10.20;99.90;;;;;;21076991;28;20024;-42
2023/06/05 01:28:50;;;;;;;3.83;2.22;;;10.10;99.90;;;;;;21059229;28;20043;-48
2023/06/05 01:38:55;;;;;;;4.03;2.47;;;9.90;99.90;;;;;;21058328;28;20322;-42
2023/06/05 01:49:00;;;;;;;8.15;4.95;;;9.80;99.90;;;;;;21057164;28;20040;-51
2023/06/05 01:59:06;;;;;;;7.38;5.30;;;9.70;99.90;;;;;;21072240;28;20032;-42
2023/06/05 02:09:10;;;;;;;7.95;5.35;;;9.80;99.90;;;;;;21055238;28;20036;-44
2023/06/05 02:19:12;;;;;;;7.20;5.40;;;9.80;99.90;;;;;;21072943;28;20066;-44
2023/06/05 02:29:13;;;;;;;7.45;5.78;;;9.80;99.90;;;;;;21072009;28;20032;-49
2023/06/05 02:39:15;;;;;;;8.02;5.78;;;9.90;99.90;;;;;;21068161;28;20558;-44
2023/06/05 02:49:17;;;;;;;7.47;5.30;;;10.00;99.90;;;;;;21070484;28;20040;-53
2023/06/05 02:59:18;;;;;;;5.50;4.20;;;10.00;99.90;;;;;;21069838;28;20540;-50
2023/06/05 03:09:20;;;;;;;3.33;2.38;;;10.00;99.90;;;;;;21069318;28;20542;-43
2023/06/05 03:19:22;;;;;;;2.00;1.52;;;10.10;99.90;;;;;;21049652;28;20028;-49
2023/06/05 03:29:26;;;;;;;1.08;0.98;;;10.10;99.90;;;;;;21049450;28;20090;-45
2023/06/05 03:39:28;;;;;;;1.50;1.10;;;10.10;99.90;;;;;;21049195;28;20481;-45
2023/06/05 03:49:30;;;;;;;1.73;1.10;;;10.10;99.90;;;;;;21048214;28;20028;-51
2023/06/05 03:59:33;;;;;;;1.80;1.40;;;10.10;99.90;;;;;;21066090;28;20424;-42
2023/06/05 04:09:36;;;;;;;1.63;1.35;;;10.20;99.90;;;;;;21048077;28;20028;-42
2023/06/05 04:19:39;;;;;;;2.15;1.90;;;10.20;99.90;;;;;;21047158;28;20394;-48
2023/06/05 04:29:41;;;;;;;2.60;2.00;;;10.20;99.90;;;;;;21072283;28;20039;-50
2023/06/05 04:39:43;;;;;;;2.22;1.50;;;10.20;99.90;;;;;;21081046;28;20500;-48
2023/06/05 04:49:47;;;;;;;2.67;1.52;;;10.20;99.90;;;;;;21062157;28;20261;-52
2023/06/05 04:59:50;;;;;;;3.03;1.60;;;10.20;99.90;;;;;;21060954;28;20550;-44
2023/06/05 05:09:53;;;;;;;3.30;1.67;;;10.30;99.90;;;;;;21060858;28;20443;-43
2023/06/05 05:19:56;;;;;;;1.60;1.27;;;10.20;99.90;;;;;;21077567;28;20036;-44
2023/06/05 05:29:58;;;;;;;1.75;1.02;;;10.20;99.90;;;;;;21077025;28;20028;-43
2023/06/05 05:40:00;;;;;;;2.15;0.90;;;10.30;99.90;;;;;;21057248;28;20409;-42
2023/06/05 05:50:02;;;;;;;2.80;1.08;;;10.30;99.90;;;;;;21075913;28;20040;-44
2023/06/05 06:00:10;;;;;;;2.88;1.20;;;10.40;99.90;;;;;;21075878;28;20076;-42
2023/06/05 06:10:13;;;;;;;1.52;1.20;;;10.50;99.90;;;;;;21054454;28;20028;-45
2023/06/05 06:20:15;;;;;;;2.28;1.27;;;10.50;99.90;;;;;;21073603;28;20366;-44
2023/06/05 06:30:17;;;;;;;1.83;1.10;;;10.60;99.90;;;;;;21070965;28;20469;-51
2023/06/05 06:40:19;;;;;;;1.35;1.00;;;10.70;99.90;;;;;;21071347;28;20052;-46
2023/06/05 06:50:21;;;;;;;1.83;1.13;;;10.90;99.90;;;;;;21071136;28;20032;-46
2023/06/05 07:00:23;;;;;;;1.88;1.08;;;10.90;99.90;;;;;;21069994;28;20032;-49
2023/06/05 07:10:25;;;;;;;1.15;0.70;;;10.90;99.90;;;;;;21069093;28;20020;-42
2023/06/05 07:20:27;;;;;;;0.90;0.70;;;10.80;99.90;;;;;;21065015;28;20099;-44
2023/06/05 07:30:29;;;;;;;3.08;0.77;;;10.80;99.90;;;;;;21067855;28;20043;-47
2023/06/05 07:40:31;;;;;;;1.38;0.57;;;10.90;99.90;;;;;;21064327;28;20056;-45
2023/06/05 07:50:32;;;;;;;1.17;0.68;;;10.90;99.90;;;;;;21067095;28;20427;-42
2023/06/05 08:00:34;;;;;;;1.27;0.80;;;11.00;99.90;;;;;;21065712;28;20089;-47
2023/06/05 08:10:36;;;;;;;0.95;0.70;;;11.10;99.90;;;;;;21065994;28;20039;-42
2023/06/05 08:20:37;;;;;;;1.35;1.10;;;11.30;99.90;;;;;;21065686;28;20024;-41
2023/06/05 08:30:40;;;;;;;1.60;0.90;;;11.20;99.90;;;;;;21065768;28;20028;-52
2023/06/05 08:40:43;;;;;;;1.55;0.80;;;11.30;99.90;;;;;;21064893;28;20439;-51
2023/06/05 08:50:47;;;;;;;1.20;0.85;;;11.40;99.90;;;;;;21065334;28;20093;-43
2023/06/05 09:00:49;;;;;;;1.80;1.10;;;11.70;99.90;;;;;;21064269;28;20032;-46
2023/06/05 09:10:50;;;;;;;1.95;1.25;;;11.70;99.90;;;;;;21062171;28;20036;-45
2023/06/05 09:20:52;;;;;;;2.63;1.20;;;11.70;99.90;;;;;;21077086;28;20020;-47
2023/06/05 09:31:03;;;;;;;1.20;1.00;;;11.80;99.90;;;;;;21077847;28;20032;-46
2023/06/05 09:41:10;;;;;;;1.58;1.00;;;11.90;99.90;;;;;;21077591;28;20040;-52
2023/06/05 09:51:17;;;;;;;1.25;0.65;;;12.00;99.90;;;;;;21073301;28;20040;-49
2023/06/05 10:01:22;;;;;;;0.88;0.60;;;12.10;99.90;;;;;;21075201;28;20093;-43
2023/06/05 10:11:27;;;;;;;0.80;0.50;;;12.40;99.90;;;;;;21073467;28;20093;-54
2023/06/05 10:21:29;;;;;;;1.15;0.77;;;12.70;99.90;;;;;;21073945;28;20032;-44
2023/06/05 10:31:42;;;;;;;0.57;0.55;;;13.10;99.90;;;;;;21072116;28;20299;-50
2023/06/05 10:41:43;;;;;;;2.67;0.90;;;13.30;99.90;;;;;;21071832;28;20040;-48
2023/06/05 10:51:47;;;;;;;2.60;0.93;;;13.60;99.90;;;;;;21071322;28;20044;-51
2023/06/05 11:02:16;;;;;;;1.67;0.60;;;13.80;99.90;;;;;;21052057;28;20036;-52
2023/06/05 11:12:17;;;;;;;0.60;0.50;;;13.90;99.90;;;;;;21069701;28;20511;-48
2023/06/05 11:22:20;;;;;;;2.08;0.50;;;13.70;99.90;;;;;;21068941;28;20028;-50
2023/06/05 11:32:26;;;;;;;1.00;0.60;;;13.60;99.90;;;;;;21067958;28;20408;-53
2023/06/05 11:42:27;;;;;;;2.15;0.63;;;13.10;99.90;;;;;;21066661;28;20108;-53
2023/06/05 11:52:29;;;;;;;1.67;0.80;;;12.90;99.90;;;;;;21049592;28;20040;-53
2023/06/05 12:02:32;;;;;;;1.25;0.52;;;12.90;99.90;;;;;;21064561;28;20035;-49
2023/06/05 12:12:34;;;;;;;1.33;0.75;;;12.70;99.90;;;;;;21065722;28;20032;-48
2023/06/05 12:22:36;;;;;;;1.42;0.68;;;12.80;99.90;;;;;;21065773;28;20028;-51
2023/06/05 12:32:43;;;;;;;2.80;1.00;;;12.90;99.90;;;;;;21066574;28;20089;-51
2023/06/05 12:42:45;;;;;;;0.88;0.80;;;13.00;99.90;;;;;;21061412;28;20041;-53
2023/06/05 12:52:47;;;;;;;1.25;0.85;;;12.90;99.90;;;;;;21074950;28;20535;-53
2023/06/05 13:02:49;;;;;;;2.05;1.17;;;12.80;99.90;;;;;;21079344;28;20464;-51
2023/06/05 13:12:51;;;;;;;1.98;0.90;;;12.70;99.90;;;;;;21079021;28;20032;-47
2023/06/05 13:22:52;;;;;;;3.50;1.02;;;12.70;99.90;;;;;;21078004;28;20028;-53
2023/06/05 13:32:54;;;;;;;3.42;0.90;;;12.70;99.90;;;;;;21078254;28;20024;-42
2023/06/05 13:42:56;;;;;;;2.33;0.70;;;13.00;99.90;;;;;;20968684;28;20056;-48
2023/06/05 13:52:58;;;;;;;0.80;0.60;;;13.50;99.90;;;;;;21029299;28;20490;-53
2023/06/05 14:02:59;;;;;;;0.80;0.50;;;13.50;99.90;;;;;;21008102;28;20036;-51
2023/06/05 14:13:02;;;;;;;0.60;0.45;;;13.60;99.90;;;;;;20985657;28;20098;-48
2023/06/05 14:23:04;;;;;;;0.70;0.50;;;13.50;99.90;;;;;;20988820;28;20433;-53
2023/06/05 14:33:06;;;;;;;1.00;0.60;;;13.60;99.90;;;;;;20988408;28;20029;-49
2023/06/05 14:43:08;;;;;;;1.80;0.70;;;13.10;99.90;;;;;;20986699;28;20037;-53
2023/06/05 14:53:10;;;;;;;0.98;0.70;;;13.00;99.90;;;;;;20986532;28;20047;-54
2023/06/05 15:03:12;;;;;;;1.40;0.70;;;12.70;99.90;;;;;;20986364;28;20401;-50
2023/06/05 15:13:14;;;;;;;1.67;0.80;;;12.80;99.90;;;;;;20983855;28;20044;-53
2023/06/05 15:23:16;;;;;;;1.35;0.82;;;12.90;99.90;;;;;;20984833;28;20555;-53
2023/06/05 15:33:18;;;;;;;0.60;0.50;;;12.80;99.90;;;;;;20983464;28;20382;-50
2023/06/05 15:43:20;;;;;;;1.17;0.80;;;12.70;99.90;;;;;;20987669;28;20048;-51
2023/06/05 15:53:22;;;;;;;0.80;0.63;;;12.60;99.90;;;;;;21003698;28;20028;-52
2023/06/05 16:03:24;;;;;;;2.03;0.68;;;12.50;99.90;;;;;;21000172;28;20028;-51
2023/06/05 16:13:27;;;;;;;0.95;0.70;;;12.50;99.90;;;;;;21016227;28;20054;-52
2023/06/05 16:23:28;;;;;;;0.50;0.45;;;12.50;99.90;;;;;;21017288;28;20063;-53
2023/06/05 16:33:30;;;;;;;0.50;0.40;;;12.40;99.90;;;;;;21035099;28;20036;-52
2023/06/05 16:43:32;;;;;;;1.63;0.40;;;12.50;99.90;;;;;;21018297;28;20040;-54
2023/06/05 16:53:33;;;;;;;0.80;0.30;;;12.70;99.90;;;;;;21027592;28;20033;-55
2023/06/05 17:03:35;;;;;;;0.28;0.28;;;12.50;99.90;;;;;;21016635;28;20035;-53
2023/06/05 17:13:36;;;;;;;0.40;0.30;;;12.40;99.90;;;;;;21007604;28;20494;-46
2023/06/05 17:23:38;;;;;;;0.77;0.30;;;12.80;99.90;;;;;;21003159;28;20075;-52
2023/06/05 17:33:40;;;;;;;0.57;0.30;;;13.10;99.90;;;;;;21003515;28;20053;-56
2023/06/05 17:43:43;;;;;;;1.13;0.50;;;13.30;99.90;;;;;;20987128;28;20508;-47
2023/06/05 17:53:44;;;;;;;1.85;0.45;;;13.50;99.90;;;;;;21007886;28;20489;-47
2023/06/05 18:03:46;;;;;;;0.40;0.30;;;13.60;99.90;;;;;;20984561;28;20117;-51
2023/06/05 18:13:48;;;;;;;2.40;0.70;;;13.30;99.90;;;;;;21014576;28;20106;-54
2023/06/05 18:23:50;;;;;;;0.68;0.55;;;12.60;99.90;;;;;;20997632;28;20029;-54
2023/06/05 18:33:51;;;;;;;1.38;0.80;;;12.20;99.90;;;;;;21016147;28;20094;-51
2023/06/05 18:43:53;;;;;;;2.92;0.60;;;11.80;99.90;;;;;;21025599;28;20055;-54
2023/06/05 18:53:55;;;;;;;3.35;0.68;;;11.30;99.90;;;;;;21020825;28;20036;-53
2023/06/05 19:03:57;;;;;;;3.00;0.50;;;10.90;99.90;;;;;;21002510;28;20357;-52
2023/06/05 19:13:59;;;;;;;1.15;0.50;;;10.70;99.90;;;;;;21016128;28;20381;-51
2023/06/05 19:24:01;;;;;;;1.52;0.50;;;10.50;99.90;;;;;;21012513;28;20094;-52
2023/06/05 19:34:03;;;;;;;2.22;0.60;;;10.40;99.90;;;;;;21009943;28;20066;-50
2023/06/05 19:44:05;;;;;;;1.85;0.85;;;10.40;99.90;;;;;;21024718;28;20036;-50
2023/06/05 19:54:07;;;;;;;1.98;0.98;;;10.30;99.90;;;;;;21004861;28;20043;-54
2023/06/05 20:04:09;;;;;;;3.33;0.80;;;10.10;99.90;;;;;;21012658;28;20028;-52
2023/06/05 20:14:11;;;;;;;1.65;0.70;;;10.00;99.90;;;;;;21010771;28;20478;-45
2023/06/05 20:24:12;;;;;;;1.75;0.80;;;9.80;99.90;;;;;;21021618;28;20031;-50
2023/06/05 20:34:14;;;;;;;1.85;1.00;;;9.70;99.90;;;;;;21022397;28;20048;-54
2023/06/05 20:44:20;;;;;;;4.85;1.40;;;9.70;99.90;;;;;;21001934;28;20037;-48
2023/06/05 20:54:22;;;;;;;3.00;1.50;;;9.70;99.90;;;;;;21014492;28;20098;-49
2023/06/05 21:04:23;;;;;;;2.22;1.30;;;9.70;99.90;;;;;;20991855;28;20052;-47
2023/06/05 21:14:26;;;;;;;1.73;1.35;;;9.80;99.90;;;;;;21018509;28;20043;-49
2023/06/05 21:24:27;;;;;;;2.92;1.10;;;9.80;99.90;;;;;;21038312;28;20488;-45
2023/06/05 21:34:29;;;;;;;2.03;0.93;;;9.80;99.90;;;;;;21033871;28;20566;-50
2023/06/05 21:44:31;;;;;;;3.85;1.42;;;9.90;99.90;;;;;;21025414;28;20109;-52
2023/06/05 21:54:34;;;;;;;1.80;1.00;;;9.80;99.90;;;;;;21037284;28;20114;-45
2023/06/05 22:04:37;;;;;;;1.42;1.00;;;9.70;99.90;;;;;;21034091;28;20058;-48
2023/06/05 22:14:43;;;;;;;2.33;1.20;;;9.60;99.90;;;;;;21035169;28;20440;-50
2023/06/05 22:24:45;;;;;;;4.78;1.52;;;9.70;99.90;;;;;;21038434;28;20036;-45
2023/06/05 22:34:49;;;;;;;2.05;1.60;;;9.60;99.90;;;;;;21040303;28;20045;-45
2023/06/05 22:44:51;;;;;;;1.63;1.30;;;9.70;99.90;;;;;;20992502;28;20036;-52
2023/06/05 22:54:53;;;;;;;1.67;1.48;;;9.80;99.90;;;;;;20987624;28;20490;-48
2023/06/05 23:04:57;;;;;;;3.70;1.50;;;10.10;99.90;;;;;;20990895;28;20048;-47
2023/06/05 23:14:58;;;;;;;1.80;1.60;;;10.10;99.90;;;;;;20989634;28;20032;-48
2023/06/05 23:25:00;;;;;;;3.08;1.40;;;10.20;99.90;;;;;;20989233;28;20032;-44
2023/06/05 23:35:02;;;;;;;1.50;0.98;;;10.20;99.90;;;;;;20964708;28;20040;-49
2023/06/05 23:45:07;;;;;;;1.40;1.10;;;10.20;99.90;;;;;;20876508;28;20091;-54
2023/06/05 23:55:12;;;;;;;1.40;1.30;;;10.30;99.90;;;;;;20900476;28;20033;-46
